createdAt,value
2019-06-01T04:00:55.495Z,12.91
2019-06-01T04:01:55.666Z,12.94
2019-06-01T04:02:55.840Z,13.00
2019-06-01T04:03:56.018Z,13.01
2019-06-01T04:04:56.186Z,13.05
2019-06-01T04:05:56.359Z,13.05
2019-06-01T04:06:56.535Z,13.15
2019-06-01T04:07:56.709Z,13.18
2019-06-01T04:08:56.880Z,13.20
2019-06-01T04:09:57.051Z,13.11
2019-06-01T04:10:57.228Z,13.13
2019-06-01T04:11:57.402Z,13.15
2019-06-01T04:12:57.567Z,13.30
2019-06-01T04:13:57.742Z,13.30
2019-06-01T04:14:57.915Z,13.20
2019-06-01T04:15:58.083Z,13.28
2019-06-01T04:16:58.252Z,13.33
2019-06-01T04:17:58.426Z,13.31
2019-06-01T04:18:58.599Z,13.46
2019-06-01T04:19:58.769Z,13.57
2019-06-01T04:20:58.940Z,13.52
2019-06-01T04:21:59.110Z,13.50
2019-06-01T04:22:59.286Z,13.53
2019-06-01T04:23:59.455Z,13.54
2019-06-01T04:24:59.630Z,13.52
2019-06-01T04:25:59.800Z,13.44
2019-06-01T04:26:59.972Z,13.47
2019-06-01T04:28:00.144Z,13.53
2019-06-01T04:29:00.316Z,13.56
2019-06-01T04:30:00.487Z,13.59
2019-06-01T04:31:00.663Z,13.60
2019-06-01T04:32:00.846Z,13.65
2019-06-01T04:33:01.009Z,13.70
2019-06-01T04:34:01.406Z,13.68
2019-06-01T04:35:03.112Z,13.59
2019-06-01T04:36:02.682Z,13.60
2019-06-01T04:37:03.463Z,13.60
2019-06-01T04:38:02.942Z,13.63
2019-06-01T04:39:03.253Z,13.68
2019-06-01T04:40:03.314Z,13.65
2019-06-01T04:41:03.489Z,13.65
2019-06-01T04:42:03.478Z,13.79
2019-06-01T04:43:03.713Z,13.72
2019-06-01T04:44:03.771Z,13.77
2019-06-01T04:45:04.289Z,13.83
2019-06-01T04:46:04.016Z,13.86
2019-06-01T04:47:04.297Z,13.85
2019-06-01T04:48:04.340Z,13.78
2019-06-01T04:49:04.359Z,13.83
2019-06-01T04:50:04.534Z,13.87
2019-06-01T04:51:04.558Z,13.87
2019-06-01T04:52:04.651Z,14.00
2019-06-01T04:53:04.677Z,13.97
2019-06-01T04:54:04.856Z,14.03
2019-06-01T04:55:05.152Z,14.03
2019-06-01T04:56:05.001Z,14.11
2019-06-01T04:57:05.179Z,14.20
2019-06-01T04:58:05.348Z,14.25
2019-06-01T04:59:06.724Z,14.15
2019-06-01T05:00:15.220Z,14.22
2019-06-01T05:01:06.915Z,14.26
2019-06-01T05:02:07.252Z,14.12
2019-06-01T05:03:08.521Z,14.33
2019-06-01T05:04:07.114Z,14.32
2019-06-01T05:05:07.185Z,14.43
2019-06-01T05:06:07.176Z,14.44
2019-06-01T05:07:07.265Z,14.54
2019-06-01T05:08:07.238Z,14.45
2019-06-01T05:09:07.317Z,14.50
2019-06-01T05:10:07.650Z,14.50
2019-06-01T05:11:08.966Z,14.58
2019-06-01T05:12:07.782Z,14.65
2019-06-01T05:13:08.013Z,14.62
2019-06-01T05:14:08.138Z,14.62
2019-06-01T05:15:09.765Z,14.78
2019-06-01T05:16:08.460Z,14.70
2019-06-01T05:17:10.049Z,14.77
2019-06-01T05:18:09.966Z,14.84
2019-06-01T05:19:10.110Z,14.84
2019-06-01T05:20:10.340Z,14.84
2019-06-01T05:21:10.367Z,14.92
2019-06-01T05:22:10.491Z,15.03
2019-06-01T05:23:10.590Z,15.04
2019-06-01T05:24:10.646Z,15.06
2019-06-01T05:25:11.908Z,15.03
2019-06-01T05:26:10.946Z,15.15
2019-06-01T05:27:11.134Z,15.17
2019-06-01T05:28:11.211Z,15.24
2019-06-01T05:29:11.663Z,15.24
2019-06-01T05:30:11.547Z,15.37
2019-06-01T05:31:14.912Z,15.31
2019-06-01T05:32:12.517Z,15.37
2019-06-01T05:33:24.690Z,15.55
2019-06-01T05:34:11.859Z,15.58
2019-06-01T05:35:11.883Z,15.54
2019-06-01T05:36:12.078Z,15.59
2019-06-01T05:37:12.380Z,15.62
2019-06-01T05:38:12.345Z,15.62
2019-06-01T05:39:12.521Z,15.73
2019-06-01T05:40:12.696Z,15.76
2019-06-01T05:41:13.248Z,15.75
2019-06-01T05:42:13.039Z,15.82
2019-06-01T05:43:17.176Z,15.75
2019-06-01T05:44:13.384Z,15.84
2019-06-01T05:45:13.557Z,15.88
2019-06-01T05:46:14.059Z,15.84
2019-06-01T05:47:14.257Z,16.02
2019-06-01T05:48:22.920Z,16.01
2019-06-01T05:49:14.714Z,16.09
2019-06-01T05:50:14.612Z,16.01
2019-06-01T05:51:16.838Z,15.98
2019-06-01T05:52:14.755Z,16.05
2019-06-01T05:53:14.931Z,16.16
2019-06-01T05:54:15.095Z,16.16
2019-06-01T05:55:15.267Z,16.20
2019-06-01T05:56:16.758Z,16.26
2019-06-01T05:57:16.725Z,16.31
2019-06-01T05:58:17.128Z,16.39
2019-06-01T05:59:16.041Z,16.39
2019-06-01T06:00:17.197Z,16.53
2019-06-01T06:01:16.496Z,16.53
2019-06-01T06:02:17.477Z,16.53
2019-06-01T06:03:20.772Z,16.61
2019-06-01T06:04:17.549Z,16.79
2019-06-01T06:05:17.013Z,16.81
2019-06-01T06:06:17.777Z,16.91
2019-06-01T06:07:17.390Z,16.94
2019-06-01T06:08:18.028Z,17.01
2019-06-01T06:09:19.042Z,17.01
2019-06-01T06:10:18.513Z,17.19
2019-06-01T06:11:19.021Z,17.19
2019-06-01T06:12:19.465Z,17.29
2019-06-01T06:13:19.375Z,17.38
2019-06-01T06:14:20.673Z,17.45
2019-06-01T06:15:19.724Z,17.67
2019-06-01T06:16:20.736Z,17.82
2019-06-01T06:17:20.274Z,17.92
2019-06-01T06:18:19.828Z,17.94
2019-06-01T06:19:22.154Z,18.13
2019-06-01T06:20:20.146Z,18.03
2019-06-01T06:21:20.247Z,18.22
2019-06-01T06:22:20.333Z,18.19
2019-06-01T06:23:20.569Z,18.33
2019-06-01T06:24:20.601Z,18.34
2019-06-01T06:25:20.519Z,18.25
2019-06-01T06:26:22.356Z,18.33
2019-06-01T06:27:20.856Z,18.43
2019-06-01T06:28:21.029Z,18.47
2019-06-01T06:29:21.204Z,18.62
2019-06-01T06:30:21.383Z,18.55
2019-06-01T06:31:21.554Z,18.65
2019-06-01T06:32:21.726Z,18.66
2019-06-01T06:33:21.908Z,18.75
2019-06-01T06:34:22.086Z,18.81
2019-06-01T06:35:22.258Z,18.81
2019-06-01T06:36:22.437Z,18.90
2019-06-01T06:37:23.801Z,18.83
2019-06-01T06:38:23.955Z,18.71
2019-06-01T06:39:24.109Z,18.89
2019-06-01T06:40:24.199Z,18.86
2019-06-01T06:41:24.375Z,18.90
2019-06-01T06:42:24.431Z,18.90
2019-06-01T06:43:32.236Z,19.04
2019-06-01T06:44:24.775Z,19.02
2019-06-01T06:45:24.942Z,19.07
2019-06-01T06:46:24.845Z,19.00
2019-06-01T06:47:25.129Z,19.02
2019-06-01T06:48:25.286Z,19.11
2019-06-01T06:49:25.374Z,19.11
2019-06-01T06:50:25.637Z,19.19
2019-06-01T06:51:25.522Z,19.21
2019-06-01T06:52:25.704Z,19.27
2019-06-01T06:53:34.779Z,19.22
2019-06-01T06:54:26.035Z,19.34
2019-06-01T06:55:26.144Z,19.47
2019-06-01T06:56:26.203Z,19.49
2019-06-01T06:57:26.316Z,19.54
2019-06-01T06:58:26.581Z,19.63
2019-06-01T06:59:26.831Z,19.58
2019-06-01T07:00:27.010Z,19.62
2019-06-01T07:01:27.019Z,19.69
2019-06-01T07:02:27.110Z,19.74
2019-06-01T07:03:27.242Z,19.91
2019-06-01T07:04:27.563Z,19.95
2019-06-01T07:05:30.716Z,20.04
2019-06-01T07:06:27.755Z,20.10
2019-06-01T07:07:27.932Z,20.14
2019-06-01T07:08:28.107Z,20.13
2019-06-01T07:09:28.374Z,20.19
2019-06-01T07:10:28.413Z,20.28
2019-06-01T07:11:29.472Z,20.32
2019-06-01T07:12:28.809Z,20.24
2019-06-01T07:13:28.902Z,20.39
2019-06-01T07:14:29.082Z,20.37
2019-06-01T07:15:29.260Z,20.40
2019-06-01T07:16:29.428Z,20.43
2019-06-01T07:17:29.615Z,20.47
2019-06-01T07:18:29.782Z,20.40
2019-06-01T07:19:29.967Z,20.50
2019-06-01T07:20:30.170Z,20.55
2019-06-01T07:21:30.322Z,20.69
2019-06-01T07:22:30.496Z,20.72
2019-06-01T07:23:30.713Z,20.81
2019-06-01T07:24:32.063Z,20.80
2019-06-01T07:28:03.202Z,21.02
2019-06-01T07:29:03.376Z,20.99
2019-06-01T07:30:03.569Z,21.09
2019-06-01T07:31:03.729Z,21.00
2019-06-01T07:32:03.908Z,20.92
2019-06-01T07:33:04.076Z,21.07
2019-06-01T07:34:04.255Z,21.07
2019-06-01T07:35:04.422Z,21.15
2019-06-01T07:36:04.616Z,21.40
2019-06-01T07:37:04.776Z,21.45
2019-06-01T07:38:04.951Z,21.58
2019-06-01T07:39:05.129Z,21.70
2019-06-01T07:40:05.308Z,21.85
2019-06-01T07:41:05.483Z,21.66
2019-06-01T07:42:05.657Z,21.70
2019-06-01T07:43:05.823Z,21.57
2019-06-01T07:44:06.000Z,21.67
2019-06-01T07:45:06.175Z,21.72
2019-06-01T07:46:06.347Z,21.72
2019-06-01T07:47:06.516Z,21.83
2019-06-01T07:48:06.693Z,22.02
2019-06-01T07:49:06.867Z,22.00
2019-06-01T07:50:07.041Z,22.00
2019-06-01T07:51:07.224Z,22.07
2019-06-01T07:52:12.609Z,22.07
2019-06-01T07:53:07.582Z,22.15
2019-06-01T07:54:07.765Z,22.10
2019-06-01T07:55:07.936Z,22.25
2019-06-01T07:56:08.111Z,22.17
2019-06-01T07:57:08.302Z,22.38
2019-06-01T07:58:08.477Z,22.45
2019-06-01T07:59:08.634Z,22.55
2019-06-01T08:00:08.802Z,22.44
2019-06-01T08:01:08.982Z,22.53
2019-06-01T08:02:09.168Z,22.57
2019-06-01T08:03:09.332Z,22.75
2019-06-01T08:04:09.499Z,22.88
2019-06-01T08:05:09.697Z,22.94
2019-06-01T08:06:09.849Z,23.20
2019-06-01T08:07:10.023Z,23.34
2019-06-01T08:08:10.190Z,23.44
2019-06-01T08:09:10.377Z,23.71
2019-06-01T08:10:10.546Z,23.83
2019-06-01T08:11:10.727Z,24.03
2019-06-01T08:12:10.890Z,24.02
2019-06-01T08:13:11.062Z,24.23
2019-06-01T08:14:11.228Z,24.33
2019-06-01T08:15:11.402Z,24.65
2019-06-01T08:16:11.577Z,24.89
2019-06-01T08:17:11.751Z,25.26
2019-06-01T08:18:11.927Z,25.50
2019-06-01T08:19:12.100Z,25.90
2019-06-01T08:20:12.318Z,26.15
2019-06-01T08:21:12.451Z,26.28
2019-06-01T08:22:12.647Z,26.55
2019-06-01T08:23:12.801Z,26.59
2019-06-01T08:24:13.071Z,26.58
2019-06-01T08:25:13.157Z,26.84
2019-06-01T08:26:13.334Z,27.02
2019-06-01T08:27:13.504Z,27.27
2019-06-01T08:28:13.675Z,27.44
2019-06-01T08:29:13.851Z,27.17
2019-06-01T08:30:14.030Z,27.05
2019-06-01T08:31:14.200Z,27.21
2019-06-01T08:32:14.376Z,27.30
2019-06-01T08:33:14.586Z,27.63
2019-06-01T08:34:14.726Z,27.65
2019-06-01T08:35:14.899Z,27.89
2019-06-01T08:36:15.073Z,28.11
2019-06-01T08:37:15.268Z,27.86
2019-06-01T08:38:15.423Z,27.77
2019-06-01T08:39:15.598Z,28.00
2019-06-01T08:40:15.776Z,27.98
2019-06-01T08:41:15.952Z,27.70
2019-06-01T08:42:16.128Z,27.71
2019-06-01T08:43:16.301Z,27.64
2019-06-01T08:44:16.476Z,27.54
2019-06-01T08:45:16.652Z,27.33
2019-06-01T08:46:16.830Z,26.93
2019-06-01T08:47:17.003Z,26.60
2019-06-01T08:48:17.175Z,26.45
2019-06-01T08:49:17.354Z,26.33
2019-06-01T08:50:17.527Z,26.25
2019-06-01T08:51:17.705Z,26.03
2019-06-01T08:52:17.875Z,25.95
2019-06-01T08:53:18.073Z,26.03
2019-06-01T08:54:18.221Z,26.18
2019-06-01T08:55:18.391Z,26.09
2019-06-01T08:56:21.801Z,26.22
2019-06-01T08:57:18.741Z,26.13
2019-06-01T08:58:18.921Z,26.05
2019-06-01T08:59:19.092Z,26.00
2019-06-01T09:00:19.269Z,26.05
2019-06-01T09:01:19.444Z,26.05
2019-06-01T09:02:19.621Z,26.06
2019-06-01T09:03:19.795Z,26.05
2019-06-01T09:04:19.970Z,26.06
2019-06-01T09:05:24.328Z,26.15
2019-06-01T09:06:20.321Z,26.05
2019-06-01T09:07:20.513Z,26.21
2019-06-01T09:08:23.702Z,26.34
2019-06-01T09:09:20.842Z,26.44
2019-06-01T09:10:21.011Z,26.43
2019-06-01T09:11:21.191Z,26.53
2019-06-01T09:12:21.360Z,26.65
2019-06-01T09:13:21.533Z,26.80
2019-06-01T09:14:21.707Z,26.80
2019-06-01T09:15:21.883Z,27.00
2019-06-01T09:16:22.071Z,26.99
2019-06-01T09:17:22.236Z,26.81
2019-06-01T09:18:22.413Z,26.58
2019-06-01T09:19:22.592Z,26.71
2019-06-01T09:20:22.785Z,26.81
2019-06-01T09:21:22.959Z,26.75
2019-06-01T09:22:23.112Z,26.84
2019-06-01T09:23:23.295Z,26.95
2019-06-01T09:24:23.472Z,26.99
2019-06-01T09:25:23.645Z,26.89
2019-06-01T09:26:23.847Z,26.95
2019-06-01T09:27:23.997Z,26.92
2019-06-01T09:28:24.183Z,27.08
2019-06-01T09:29:25.734Z,27.15
2019-06-01T09:30:25.789Z,26.93
2019-06-01T09:31:26.136Z,27.17
2019-06-01T09:32:26.002Z,27.22
2019-06-01T09:33:26.058Z,27.36
2019-06-01T09:34:26.186Z,27.37
2019-06-01T09:35:46.289Z,27.36
2019-06-01T09:36:26.155Z,27.30
2019-06-01T09:37:26.443Z,27.32
2019-06-01T09:38:25.931Z,27.30
2019-06-01T09:39:26.668Z,27.47
2019-06-01T09:40:28.265Z,27.63
2019-06-01T09:41:26.476Z,27.75
2019-06-01T09:42:26.744Z,27.65
2019-06-01T09:43:26.819Z,27.78
2019-06-01T09:44:26.994Z,27.83
2019-06-01T09:45:27.810Z,27.98
2019-06-01T09:46:27.344Z,28.05
2019-06-01T09:47:27.531Z,27.78
2019-06-01T09:48:27.691Z,27.89
2019-06-01T09:49:29.075Z,27.75
2019-06-01T09:50:29.172Z,27.63
2019-06-01T09:51:29.447Z,27.49
2019-06-01T09:52:29.246Z,27.21
2019-06-01T09:53:29.361Z,27.07
2019-06-01T09:54:29.388Z,26.89
2019-06-01T09:55:30.621Z,26.89
2019-06-01T09:56:30.884Z,26.66
2019-06-01T09:57:29.844Z,26.43
2019-06-01T09:58:30.164Z,26.29
2019-06-01T09:59:29.784Z,26.36
2019-06-01T10:00:30.333Z,26.80
2019-06-01T10:01:30.126Z,27.20
2019-06-01T10:02:30.166Z,27.63
2019-06-01T10:03:30.334Z,27.98
2019-06-01T10:04:30.506Z,28.04
2019-06-01T10:05:30.682Z,28.33
2019-06-01T10:06:30.858Z,28.69
2019-06-01T10:07:31.038Z,28.89
2019-06-01T10:08:32.592Z,29.14
2019-06-01T10:09:31.562Z,29.38
2019-06-01T10:10:31.922Z,29.63
2019-06-01T10:11:32.615Z,30.10
2019-06-01T10:12:31.966Z,30.66
2019-06-01T10:13:33.370Z,31.10
2019-06-01T10:14:32.263Z,31.65
2019-06-01T10:15:32.513Z,31.31
2019-06-01T10:16:32.822Z,30.69
2019-06-01T10:17:33.289Z,30.68
2019-06-01T10:18:33.014Z,30.72
2019-06-01T10:19:33.141Z,30.91
2019-06-01T10:20:33.321Z,31.21
2019-06-01T10:21:33.958Z,31.56
2019-06-01T10:22:34.997Z,32.01
2019-06-01T10:23:34.479Z,32.34
2019-06-01T10:24:35.100Z,32.18
2019-06-01T10:25:34.501Z,32.27
2019-06-01T10:26:35.611Z,32.33
2019-06-01T10:27:34.583Z,32.26
2019-06-01T10:28:35.736Z,32.30
2019-06-01T10:29:34.938Z,32.46
2019-06-01T10:30:35.778Z,32.71
2019-06-01T10:31:35.293Z,32.97
2019-06-01T10:32:35.737Z,33.00
2019-06-01T10:33:37.324Z,32.78
2019-06-01T10:34:35.851Z,32.96
2019-06-01T10:35:36.956Z,32.73
2019-06-01T10:36:36.196Z,32.85
2019-06-01T10:37:37.579Z,32.95
2019-06-01T10:38:37.391Z,33.36
2019-06-01T10:39:37.203Z,33.80
2019-06-01T10:40:37.624Z,33.87
2019-06-01T10:41:37.448Z,33.32
2019-06-01T10:42:38.023Z,32.64
2019-06-01T10:43:37.720Z,32.71
2019-06-01T10:44:41.834Z,32.85
2019-06-01T10:45:37.853Z,32.41
2019-06-01T10:46:38.116Z,32.65
2019-06-01T10:47:38.440Z,32.86
2019-06-01T10:48:38.376Z,33.08
2019-06-01T10:49:38.556Z,33.42
2019-06-01T10:50:38.738Z,33.86
2019-06-01T10:51:40.234Z,33.95
2019-06-01T10:52:40.399Z,33.45
2019-06-01T10:53:41.250Z,32.58
2019-06-01T10:54:40.268Z,32.29
2019-06-01T10:55:40.309Z,32.77
2019-06-01T10:56:40.583Z,32.52
2019-06-01T10:57:40.613Z,32.55
2019-06-01T10:58:58.806Z,31.70
2019-06-01T10:59:40.587Z,31.58
2019-06-01T11:00:47.765Z,32.18
2019-06-01T11:01:40.964Z,32.51
2019-06-01T11:02:40.996Z,32.58
2019-06-01T11:03:41.106Z,32.43
2019-06-01T11:04:41.288Z,32.86
2019-06-01T11:05:41.462Z,33.14
2019-06-01T11:06:47.763Z,33.34
2019-06-01T11:07:43.026Z,33.46
2019-06-01T11:08:43.168Z,33.58
2019-06-01T11:09:43.255Z,33.58
2019-06-01T11:10:43.228Z,33.62
2019-06-01T11:11:43.181Z,34.01
2019-06-01T11:12:43.235Z,34.17
2019-06-01T11:13:43.274Z,34.48
2019-06-01T11:14:43.429Z,34.58
2019-06-01T11:15:43.353Z,34.55
2019-06-01T11:16:44.047Z,34.55
2019-06-01T11:17:43.642Z,34.61
2019-06-01T11:18:43.833Z,34.14
2019-06-01T11:19:44.014Z,34.02
2019-06-01T11:20:44.192Z,33.79
2019-06-01T11:21:44.378Z,34.01
2019-06-01T11:22:44.557Z,34.14
2019-06-01T11:23:46.558Z,34.25
2019-06-01T11:24:44.925Z,34.35
2019-06-01T11:25:45.112Z,34.55
2019-06-01T11:26:45.292Z,34.92
2019-06-01T11:27:45.476Z,34.99
2019-06-01T11:28:45.656Z,35.26
2019-06-01T11:29:50.993Z,35.29
2019-06-01T11:30:46.022Z,35.18
2019-06-01T11:31:46.207Z,35.05
2019-06-01T11:32:46.390Z,35.27
2019-06-01T11:33:46.580Z,35.19
2019-06-01T11:34:46.770Z,35.29
2019-06-01T11:35:46.953Z,35.31
2019-06-01T11:37:04.966Z,35.48
2019-06-01T11:37:47.317Z,35.30
2019-06-01T11:38:47.500Z,35.22
2019-06-01T11:39:47.684Z,35.26
2019-06-01T11:40:47.868Z,34.95
2019-06-01T11:41:48.110Z,34.92
2019-06-01T11:42:48.250Z,34.25
2019-06-01T11:43:48.420Z,34.14
2019-06-01T11:44:48.607Z,34.21
2019-06-01T11:45:48.790Z,33.59
2019-06-01T11:46:48.977Z,33.27
2019-06-01T11:47:49.165Z,32.45
2019-06-01T11:48:49.342Z,32.12
2019-06-01T11:49:49.527Z,32.60
2019-06-01T11:50:49.711Z,33.23
2019-06-01T11:51:49.897Z,33.69
2019-06-01T11:52:50.080Z,33.86
2019-06-01T11:53:50.266Z,34.20
2019-06-01T11:54:50.446Z,33.73
2019-06-01T11:55:50.648Z,33.39
2019-06-01T11:56:50.816Z,33.57
2019-06-01T11:57:51.001Z,33.57
2019-06-01T11:58:51.184Z,33.55
2019-06-01T11:59:51.368Z,33.37
2019-06-01T12:00:51.566Z,33.14
2019-06-01T12:01:51.812Z,32.41
2019-06-01T12:02:51.921Z,32.04
2019-06-01T12:03:52.103Z,32.31
2019-06-01T12:04:52.288Z,32.45
2019-06-01T12:05:52.470Z,32.71
2019-06-01T12:06:52.652Z,32.43
2019-06-01T12:07:52.838Z,32.15
2019-06-01T12:08:53.021Z,32.16
2019-06-01T12:09:53.201Z,31.78
2019-06-01T12:10:53.390Z,31.85
2019-06-01T12:11:53.582Z,31.71
2019-06-01T12:12:53.753Z,31.61
2019-06-01T12:13:53.943Z,31.52
2019-06-01T12:14:54.124Z,32.34
2019-06-01T12:15:54.305Z,32.90
2019-06-01T12:16:54.489Z,33.40
2019-06-01T12:17:54.675Z,33.39
2019-06-01T12:18:54.854Z,33.20
2019-06-01T12:19:55.042Z,33.55
2019-06-01T12:20:55.222Z,33.90
2019-06-01T12:21:55.403Z,34.39
2019-06-01T12:22:55.593Z,34.43
2019-06-01T12:23:55.770Z,34.86
2019-06-01T12:24:55.955Z,35.10
2019-06-01T12:25:56.137Z,34.60
2019-06-01T12:26:56.325Z,34.54
2019-06-01T12:27:56.506Z,34.18
2019-06-01T12:28:56.689Z,34.58
2019-06-01T12:29:56.884Z,34.38
2019-06-01T12:30:57.060Z,33.80
2019-06-01T12:31:57.242Z,33.37
2019-06-01T12:32:57.423Z,32.90
2019-06-01T12:33:57.631Z,33.07
2019-06-01T12:34:57.789Z,33.42
2019-06-01T12:35:58.004Z,32.86
2019-06-01T12:36:58.179Z,32.52
2019-06-01T12:38:06.217Z,32.96
2019-06-01T12:38:58.521Z,33.81
2019-06-01T12:39:58.703Z,34.29
2019-06-01T12:40:58.882Z,34.81
2019-06-01T12:41:59.075Z,35.12
2019-06-01T12:42:59.263Z,35.34
2019-06-01T12:43:59.432Z,35.19
2019-06-01T12:44:59.615Z,35.12
2019-06-01T12:46:07.393Z,34.40
2019-06-01T12:46:59.978Z,33.80
2019-06-01T12:48:00.161Z,33.53
2019-06-01T12:49:00.347Z,33.24
2019-06-01T12:50:00.534Z,33.86
2019-06-01T12:51:00.720Z,34.18
2019-06-01T12:52:00.916Z,34.40
2019-06-01T12:53:01.091Z,34.62
2019-06-01T12:54:01.270Z,35.30
2019-06-01T12:55:01.451Z,35.41
2019-06-01T12:56:01.633Z,35.39
2019-06-01T12:57:01.816Z,35.90
2019-06-01T12:58:02.006Z,36.39
2019-06-01T12:59:02.198Z,36.25
2019-06-01T13:00:02.366Z,36.64
2019-06-01T13:01:02.930Z,36.74
2019-06-01T13:02:02.731Z,36.39
2019-06-01T13:03:07.465Z,36.54
2019-06-01T13:04:03.103Z,36.51
2019-06-01T13:05:03.284Z,36.58
2019-06-01T13:06:03.488Z,36.68
2019-06-01T13:07:03.656Z,36.72
2019-06-01T13:08:03.841Z,36.83
2019-06-01T13:09:04.026Z,36.92
2019-06-01T13:10:04.214Z,36.84
2019-06-01T13:11:04.397Z,36.72
2019-06-01T13:12:04.579Z,36.84
2019-06-01T13:13:04.767Z,36.39
2019-06-01T13:14:04.952Z,36.21
2019-06-01T13:15:05.144Z,36.47
2019-06-01T13:16:05.324Z,36.28
2019-06-01T13:17:07.752Z,35.83
2019-06-01T13:18:05.695Z,35.92
2019-06-01T13:19:05.883Z,36.07
2019-06-01T13:20:06.067Z,36.33
2019-06-01T13:21:06.252Z,36.57
2019-06-01T13:22:06.435Z,36.76
2019-06-01T13:23:06.622Z,36.40
2019-06-01T13:24:06.807Z,36.08
2019-06-01T13:25:06.995Z,35.64
2019-06-01T13:26:07.180Z,35.36
2019-06-01T13:27:07.363Z,35.67
2019-06-01T13:28:07.549Z,35.56
2019-06-01T13:29:07.734Z,35.60
2019-06-01T13:30:07.920Z,35.68
2019-06-01T13:31:08.101Z,36.08
2019-06-01T13:32:08.297Z,36.12
2019-06-01T13:33:08.484Z,36.33
2019-06-01T13:34:08.669Z,36.76
2019-06-01T13:35:08.851Z,36.68
2019-06-01T13:36:09.047Z,36.89
2019-06-01T13:37:09.224Z,36.81
2019-06-01T13:38:12.080Z,36.68
2019-06-01T13:39:09.597Z,36.57
2019-06-01T13:40:09.781Z,36.86
2019-06-01T13:41:09.966Z,37.06
2019-06-01T13:42:10.153Z,37.33
2019-06-01T13:43:10.341Z,37.30
2019-06-01T13:44:10.529Z,36.99
2019-06-01T13:45:10.715Z,36.91
2019-06-01T13:46:10.917Z,36.86
2019-06-01T13:47:11.097Z,36.84
2019-06-01T13:48:11.281Z,37.01
2019-06-01T13:49:11.488Z,37.06
2019-06-01T13:50:11.658Z,37.20
2019-06-01T13:51:11.847Z,37.08
2019-06-01T13:52:12.031Z,37.11
2019-06-01T13:53:12.216Z,36.91
2019-06-01T13:54:12.405Z,37.10
2019-06-01T13:55:12.588Z,37.18
2019-06-01T13:56:12.779Z,36.72
2019-06-01T13:57:12.964Z,36.77
2019-06-01T13:58:13.154Z,36.68
2019-06-01T13:59:13.346Z,36.77
2019-06-01T14:00:15.838Z,36.74
2019-06-01T14:01:13.711Z,36.68
2019-06-01T14:02:13.921Z,36.73
2019-06-01T14:03:14.086Z,36.62
2019-06-01T14:04:14.273Z,36.49
2019-06-01T14:05:14.460Z,36.31
2019-06-01T14:06:14.647Z,35.51
2019-06-01T14:07:14.837Z,35.02
2019-06-01T14:08:28.164Z,35.31
2019-06-01T14:09:15.204Z,35.46
2019-06-01T14:10:15.394Z,35.61
2019-06-01T14:11:15.581Z,35.79
2019-06-01T14:12:15.763Z,35.93
2019-06-01T14:13:15.950Z,35.71
2019-06-01T14:14:16.134Z,35.68
2019-06-01T14:15:16.337Z,36.05
2019-06-01T14:16:16.505Z,36.47
2019-06-01T14:17:16.696Z,36.59
2019-06-01T14:18:16.883Z,36.65
2019-06-01T14:19:17.069Z,36.73
2019-06-01T14:20:17.263Z,36.79
2019-06-01T14:21:17.453Z,36.80
2019-06-01T14:22:17.626Z,36.57
2019-06-01T14:23:17.824Z,36.28
2019-06-01T14:24:18.018Z,36.24
2019-06-01T14:25:18.262Z,35.64
2019-06-01T14:26:18.376Z,35.31
2019-06-01T14:27:18.568Z,34.96
2019-06-01T14:28:18.784Z,34.90
2019-06-01T14:29:18.947Z,34.77
2019-06-01T14:30:19.133Z,34.90
2019-06-01T14:31:19.316Z,34.78
2019-06-01T14:32:19.502Z,35.12
2019-06-01T14:33:19.689Z,35.08
2019-06-01T14:34:19.874Z,35.36
2019-06-01T14:35:20.059Z,35.66
2019-06-01T14:36:20.249Z,36.01
2019-06-01T14:37:20.434Z,36.28
2019-06-01T14:38:20.618Z,36.39
2019-06-01T14:39:20.809Z,36.55
2019-06-01T14:40:21.003Z,36.58
2019-06-01T14:41:21.184Z,36.25
2019-06-01T14:42:21.364Z,36.07
2019-06-01T14:43:21.553Z,35.93
2019-06-01T14:44:21.736Z,36.09
2019-06-01T14:45:21.923Z,36.04
2019-06-01T14:46:22.117Z,35.88
2019-06-01T14:47:22.296Z,35.71
2019-06-01T14:48:22.482Z,35.66
2019-06-01T14:49:22.671Z,35.71
2019-06-01T14:50:22.857Z,35.82
2019-06-01T14:51:23.043Z,35.79
2019-06-01T14:52:23.230Z,35.74
2019-06-01T14:53:23.413Z,35.92
2019-06-01T14:54:23.611Z,36.05
2019-06-01T14:55:23.785Z,36.21
2019-06-01T14:56:23.970Z,35.98
2019-06-01T14:57:24.155Z,35.93
2019-06-01T14:58:24.339Z,35.93
2019-06-01T14:59:24.523Z,35.97
2019-06-01T15:00:24.710Z,35.88
2019-06-01T15:01:32.664Z,35.80
2019-06-01T15:02:25.076Z,35.58
2019-06-01T15:03:25.272Z,35.37
2019-06-01T15:04:25.460Z,35.51
2019-06-01T15:05:25.641Z,35.52
2019-06-01T15:06:25.830Z,35.56
2019-06-01T15:07:26.013Z,35.58
2019-06-01T15:08:26.199Z,35.31
2019-06-01T15:09:26.387Z,35.12
2019-06-01T15:10:26.574Z,34.61
2019-06-01T15:11:26.755Z,33.98
2019-06-01T15:12:26.946Z,33.68
2019-06-01T15:13:27.127Z,33.52
2019-06-01T15:14:27.316Z,33.50
2019-06-01T15:15:27.505Z,33.84
2019-06-01T15:16:27.683Z,33.95
2019-06-01T15:17:27.869Z,33.90
2019-06-01T15:18:28.056Z,33.81
2019-06-01T15:19:28.238Z,33.90
2019-06-01T15:20:28.423Z,33.73
2019-06-01T15:21:28.607Z,33.57
2019-06-01T15:22:28.790Z,33.71
2019-06-01T15:23:28.979Z,33.84
2019-06-01T15:24:29.163Z,33.95
2019-06-01T15:25:29.349Z,34.01
2019-06-01T15:26:29.532Z,33.65
2019-06-01T15:27:29.717Z,33.47
2019-06-01T15:28:29.905Z,33.71
2019-06-01T15:29:30.088Z,33.98
2019-06-01T15:30:30.274Z,34.18
2019-06-01T15:31:30.468Z,33.98
2019-06-01T15:32:30.646Z,33.99
2019-06-01T15:33:30.824Z,33.81
2019-06-01T15:34:31.012Z,33.76
2019-06-01T15:35:31.191Z,33.50
2019-06-01T15:36:31.392Z,33.67
2019-06-01T15:37:31.568Z,33.73
2019-06-01T15:38:31.744Z,33.81
2019-06-01T15:39:31.929Z,33.77
2019-06-01T15:40:32.111Z,33.73
2019-06-01T15:41:32.299Z,33.81
2019-06-01T15:42:32.486Z,34.01
2019-06-01T15:43:32.666Z,33.95
2019-06-01T15:44:32.850Z,34.06
2019-06-01T15:45:33.040Z,34.36
2019-06-01T15:46:33.226Z,34.33
2019-06-01T15:47:33.408Z,34.17
2019-06-01T15:48:33.594Z,34.01
2019-06-01T15:49:33.774Z,33.92
2019-06-01T15:50:33.956Z,33.81
2019-06-01T15:51:34.140Z,33.77
2019-06-01T15:52:34.325Z,33.92
2019-06-01T15:53:34.509Z,34.01
2019-06-01T15:54:34.699Z,33.80
2019-06-01T15:55:34.877Z,33.73
2019-06-01T15:56:35.058Z,33.58
2019-06-01T15:57:35.241Z,33.50
2019-06-01T15:58:51.418Z,33.40
2019-06-01T15:59:35.607Z,33.12
2019-06-01T16:00:35.793Z,32.92
2019-06-01T16:01:35.978Z,32.73
2019-06-01T16:02:36.161Z,32.68
2019-06-01T16:03:36.344Z,32.92
2019-06-01T16:04:36.526Z,33.17
2019-06-01T16:05:36.711Z,33.02
2019-06-01T16:06:36.896Z,33.02
2019-06-01T16:07:37.079Z,32.90
2019-06-01T16:08:37.264Z,33.04
2019-06-01T16:09:42.839Z,32.86
2019-06-01T16:10:37.684Z,33.02
2019-06-01T16:11:37.817Z,33.04
2019-06-01T16:12:38.041Z,32.90
2019-06-01T16:13:38.177Z,32.78
2019-06-01T16:14:38.356Z,32.78
2019-06-01T16:15:38.538Z,32.55
2019-06-01T16:16:38.741Z,32.64
2019-06-01T16:17:38.908Z,32.40
2019-06-01T16:18:39.090Z,32.45
2019-06-01T16:19:39.271Z,32.52
2019-06-01T16:20:39.453Z,32.56
2019-06-01T16:21:39.633Z,32.43
2019-06-01T16:22:39.821Z,32.43
2019-06-01T16:23:49.892Z,32.34
2019-06-01T16:24:40.186Z,32.40
2019-06-01T16:25:40.367Z,32.55
2019-06-01T16:26:40.553Z,32.29
2019-06-01T16:27:40.750Z,32.36
2019-06-01T16:28:40.921Z,32.03
2019-06-01T16:29:41.101Z,31.78
2019-06-01T16:30:41.282Z,31.58
2019-06-01T16:31:41.469Z,31.73
2019-06-01T16:32:41.649Z,31.61
2019-06-01T16:33:41.831Z,31.61
2019-06-01T16:34:42.013Z,31.70
2019-06-01T16:35:42.197Z,31.76
2019-06-01T16:36:42.386Z,31.73
2019-06-01T16:37:42.564Z,31.64
2019-06-01T16:38:42.750Z,31.62
2019-06-01T16:39:58.337Z,31.43
2019-06-01T16:40:43.111Z,31.42
2019-06-01T16:41:43.295Z,31.21
2019-06-01T16:42:43.482Z,31.00
2019-06-01T16:43:43.660Z,30.91
2019-06-01T16:44:43.841Z,31.00
2019-06-01T16:45:44.023Z,30.85
2019-06-01T16:46:44.204Z,30.80
2019-06-01T16:47:44.415Z,30.39
2019-06-01T16:48:44.570Z,30.13
2019-06-01T16:49:44.751Z,30.00
2019-06-01T16:50:44.929Z,29.76
2019-06-01T16:51:45.113Z,29.75
2019-06-01T16:52:45.296Z,29.60
2019-06-01T16:53:45.477Z,29.49
2019-06-01T16:54:45.660Z,29.41
2019-06-01T16:55:45.837Z,29.29
2019-06-01T16:56:46.022Z,29.24
2019-06-01T16:57:46.207Z,29.17